Archival Weather

Chicago O'Hare International

Chicago, Illinois (KORD)

Report from: Monday, January 2, 2023 10:39 PM CST
Current time: Monday, June 17, 2024 2:06 AM CDT

Current weather – Weather history – Daily summaries
Weather forecast

Present weatherMist
Temperature3.9°C (39.0°F)
Wind chill0.4°C (32.8°F)
Dew point2.2°C (36.0°F)
Winds 8 kts (4.1 m/s, 9.2 mph) Northeast (40°)
Visibility3960 ft. (1.2 km)
Clouds Ceiling: Overcast 200 ft. (61 m)
Altimeter29.88 in.Hg (1012 mB)
Relative humidity89 %
Density altitude-1,191 ft. (-363 m)
Remarks Automated weather observing station with precipitation discriminator
Flight conditions Low Instrument Meteorological Conditions
Raw dataKORD 030439Z 04008KT 3/4SM R10L/6000VP6000FT BR OVC002 04/02 A2988 RMK AO2 T00390022
An error has occurred. This application may no longer respond until reloaded. Reload 🗙